sensor_id;sensor_type;location;lat;lon;timestamp;temperature;humidity
59067;DHT22;44854;50.838;4.438;2024-03-06T05:11:19;5.40;99.90
59067;DHT22;44854;50.838;4.438;2024-03-06T05:13:45;5.30;99.90
59067;DHT22;44854;50.838;4.438;2024-03-06T05:16:10;5.30;99.90
59067;DHT22;44854;50.838;4.438;2024-03-06T05:18:36;5.40;99.90
59067;DHT22;44854;50.838;4.438;2024-03-06T05:21:02;5.50;99.90
59067;DHT22;44854;50.838;4.438;2024-03-06T05:23:28;5.50;99.90
59067;DHT22;44854;50.838;4.438;2024-03-06T05:25:53;5.50;99.90
59067;DHT22;44854;50.838;4.438;2024-03-06T05:28:19;5.60;99.90
59067;DHT22;44854;50.838;4.438;2024-03-06T05:30:44;5.40;99.90
59067;DHT22;44854;50.838;4.438;2024-03-06T05:33:10;5.30;99.90
59067;DHT22;44854;50.838;4.438;2024-03-06T05:35:36;5.20;99.90
59067;DHT22;44854;50.838;4.438;2024-03-06T05:38:01;5.20;99.90
59067;DHT22;44854;50.838;4.438;2024-03-06T05:40:28;5.20;99.90
59067;DHT22;44854;50.838;4.438;2024-03-06T05:42:54;5.20;99.90
59067;DHT22;44854;50.838;4.438;2024-03-06T05:45:19;5.00;99.90
59067;DHT22;44854;50.838;4.438;2024-03-06T05:47:45;5.10;99.90
59067;DHT22;44854;50.838;4.438;2024-03-06T05:50:13;5.00;99.90
59067;DHT22;44854;50.838;4.438;2024-03-06T05:52:38;4.90;99.90
59067;DHT22;44854;50.838;4.438;2024-03-06T05:55:04;5.00;99.90
59067;DHT22;44854;50.838;4.438;2024-03-06T05:57:31;5.00;99.90
59067;DHT22;44854;50.838;4.438;2024-03-06T05:59:57;4.90;99.90
59067;DHT22;44854;50.838;4.438;2024-03-06T06:02:23;5.00;99.90
59067;DHT22;44854;50.838;4.438;2024-03-06T06:04:49;5.00;99.90
59067;DHT22;44854;50.838;4.438;2024-03-06T06:07:14;5.10;99.90
59067;DHT22;44854;50.838;4.438;2024-03-06T06:09:41;5.00;99.90
59067;DHT22;44854;50.838;4.438;2024-03-06T06:12:08;5.00;99.90
59067;DHT22;44854;50.838;4.438;2024-03-06T06:14:34;4.90;99.90
59067;DHT22;44854;50.838;4.438;2024-03-06T06:17:00;4.80;99.90
59067;DHT22;44854;50.838;4.438;2024-03-06T06:19:25;4.80;99.90
59067;DHT22;44854;50.838;4.438;2024-03-06T06:21:53;4.90;99.90
59067;DHT22;44854;50.838;4.438;2024-03-06T06:24:19;4.80;99.90
59067;DHT22;44854;50.838;4.438;2024-03-06T06:26:45;4.80;99.90
59067;DHT22;44854;50.838;4.438;2024-03-06T06:29:10;4.80;99.90
59067;DHT22;44854;50.838;4.438;2024-03-06T06:31:36;4.80;99.90
59067;DHT22;44854;50.838;4.438;2024-03-06T06:34:02;4.80;99.90
59067;DHT22;44854;50.838;4.438;2024-03-06T06:36:27;4.80;99.90
59067;DHT22;44854;50.838;4.438;2024-03-06T06:38:53;4.80;99.90
59067;DHT22;44854;50.838;4.438;2024-03-06T06:41:19;4.90;99.90
59067;DHT22;44854;50.838;4.438;2024-03-06T06:43:45;4.90;99.90
59067;DHT22;44854;50.838;4.438;2024-03-06T06:46:11;4.90;99.90
59067;DHT22;44854;50.838;4.438;2024-03-06T06:48:37;4.90;99.90
59067;DHT22;44854;50.838;4.438;2024-03-06T06:51:04;4.90;99.90
59067;DHT22;44854;50.838;4.438;2024-03-06T06:53:30;4.90;99.90
59067;DHT22;44854;50.838;4.438;2024-03-06T06:55:57;4.90;99.90
59067;DHT22;44854;50.838;4.438;2024-03-06T06:58:22;4.90;99.90
59067;DHT22;44854;50.838;4.438;2024-03-06T07:00:48;4.90;99.90
59067;DHT22;44854;50.838;4.438;2024-03-06T07:03:14;4.90;99.90
59067;DHT22;44854;50.838;4.438;2024-03-06T07:05:40;4.90;99.90
59067;DHT22;44854;50.838;4.438;2024-03-06T07:08:08;5.00;99.90
59067;DHT22;44854;50.838;4.438;2024-03-06T07:10:33;5.00;99.90
59067;DHT22;44854;50.838;4.438;2024-03-06T07:13:01;5.00;99.90
59067;DHT22;44854;50.838;4.438;2024-03-06T07:15:28;5.10;99.90
59067;DHT22;44854;50.838;4.438;2024-03-06T07:17:54;5.10;99.90
59067;DHT22;44854;50.838;4.438;2024-03-06T07:20:21;5.20;99.90
59067;DHT22;44854;50.838;4.438;2024-03-06T07:22:47;5.20;99.90
59067;DHT22;44854;50.838;4.438;2024-03-06T07:25:12;5.30;99.90
59067;DHT22;44854;50.838;4.438;2024-03-06T07:27:38;5.30;99.90
59067;DHT22;44854;50.838;4.438;2024-03-06T07:30:05;5.30;99.90
59067;DHT22;44854;50.838;4.438;2024-03-06T07:32:30;5.30;99.90
59067;DHT22;44854;50.838;4.438;2024-03-06T07:34:57;5.30;99.90
59067;DHT22;44854;50.838;4.438;2024-03-06T07:37:23;5.30;99.90
59067;DHT22;44854;50.838;4.438;2024-03-06T07:39:49;5.40;99.90
59067;DHT22;44854;50.838;4.438;2024-03-06T07:42:15;5.50;99.90
59067;DHT22;44854;50.838;4.438;2024-03-06T07:44:41;5.50;99.90
59067;DHT22;44854;50.838;4.438;2024-03-06T07:47:06;5.60;99.90
59067;DHT22;44854;50.838;4.438;2024-03-06T07:49:32;5.60;99.90
59067;DHT22;44854;50.838;4.438;2024-03-06T07:51:58;5.80;99.90
59067;DHT22;44854;50.838;4.438;2024-03-06T07:54:25;6.10;99.90
59067;DHT22;44854;50.838;4.438;2024-03-06T07:56:51;6.20;99.90
59067;DHT22;44854;50.838;4.438;2024-03-06T07:59:17;6.30;99.90
59067;DHT22;44854;50.838;4.438;2024-03-06T08:01:43;6.50;99.90
59067;DHT22;44854;50.838;4.438;2024-03-06T08:04:10;6.60;99.90
59067;DHT22;44854;50.838;4.438;2024-03-06T08:06:36;6.80;99.90
59067;DHT22;44854;50.838;4.438;2024-03-06T08:09:03;7.00;99.90
59067;DHT22;44854;50.838;4.438;2024-03-06T08:11:32;7.20;99.90
59067;DHT22;44854;50.838;4.438;2024-03-06T08:13:59;7.40;99.90
59067;DHT22;44854;50.838;4.438;2024-03-06T08:16:25;7.50;99.90
59067;DHT22;44854;50.838;4.438;2024-03-06T08:18:51;7.60;99.90
59067;DHT22;44854;50.838;4.438;2024-03-06T08:21:16;7.90;99.90
59067;DHT22;44854;50.838;4.438;2024-03-06T08:23:42;8.10;99.90
59067;DHT22;44854;50.838;4.438;2024-03-06T08:26:08;8.20;99.90
59067;DHT22;44854;50.838;4.438;2024-03-06T08:28:35;8.30;99.90
59067;DHT22;44854;50.838;4.438;2024-03-06T08:31:02;8.50;99.90
59067;DHT22;44854;50.838;4.438;2024-03-06T08:33:27;8.60;99.90
59067;DHT22;44854;50.838;4.438;2024-03-06T08:35:53;8.70;99.90
59067;DHT22;44854;50.838;4.438;2024-03-06T08:38:18;8.90;99.90
59067;DHT22;44854;50.838;4.438;2024-03-06T08:40:44;9.20;99.90
59067;DHT22;44854;50.838;4.438;2024-03-06T08:43:14;9.30;99.90
59067;DHT22;44854;50.838;4.438;2024-03-06T08:45:41;9.50;99.90
59067;DHT22;44854;50.838;4.438;2024-03-06T08:48:07;9.50;99.90
59067;DHT22;44854;50.838;4.438;2024-03-06T08:50:33;9.60;99.90
59067;DHT22;44854;50.838;4.438;2024-03-06T08:52:58;9.80;99.90
59067;DHT22;44854;50.838;4.438;2024-03-06T08:55:24;9.80;99.90
59067;DHT22;44854;50.838;4.438;2024-03-06T08:57:49;9.90;99.90
59067;DHT22;44854;50.838;4.438;2024-03-06T09:00:18;10.00;99.90
59067;DHT22;44854;50.838;4.438;2024-03-06T09:02:44;10.10;99.90
59067;DHT22;44854;50.838;4.438;2024-03-06T09:05:10;10.20;99.90
59067;DHT22;44854;50.838;4.438;2024-03-06T09:07:38;10.30;99.90
59067;DHT22;44854;50.838;4.438;2024-03-06T09:10:10;10.40;99.90
59067;DHT22;44854;50.838;4.438;2024-03-06T09:12:36;10.50;99.90
59067;DHT22;44854;50.838;4.438;2024-03-06T09:15:03;10.40;99.90
59067;DHT22;44854;50.838;4.438;2024-03-06T09:17:29;10.60;99.90
59067;DHT22;44854;50.838;4.438;2024-03-06T09:19:55;10.70;99.90
59067;DHT22;44854;50.838;4.438;2024-03-06T09:22:20;10.80;99.90
59067;DHT22;44854;50.838;4.438;2024-03-06T09:24:48;11.00;99.90
59067;DHT22;44854;50.838;4.438;2024-03-06T09:27:14;10.50;99.90
59067;DHT22;44854;50.838;4.438;2024-03-06T09:29:42;10.40;99.90
59067;DHT22;44854;50.838;4.438;2024-03-06T09:32:08;10.60;99.90
59067;DHT22;44854;50.838;4.438;2024-03-06T09:34:34;10.70;99.90
59067;DHT22;44854;50.838;4.438;2024-03-06T09:36:59;10.90;99.90
59067;DHT22;44854;50.838;4.438;2024-03-06T09:39:25;11.00;99.90
59067;DHT22;44854;50.838;4.438;2024-03-06T09:41:51;11.10;99.90
59067;DHT22;44854;50.838;4.438;2024-03-06T09:44:18;11.20;99.90
59067;DHT22;44854;50.838;4.438;2024-03-06T09:46:45;11.50;99.90
59067;DHT22;44854;50.838;4.438;2024-03-06T09:49:12;11.60;99.90
59067;DHT22;44854;50.838;4.438;2024-03-06T09:51:47;11.80;99.90
59067;DHT22;44854;50.838;4.438;2024-03-06T09:54:16;11.80;99.90
59067;DHT22;44854;50.838;4.438;2024-03-06T09:56:45;11.60;99.90
59067;DHT22;44854;50.838;4.438;2024-03-06T09:59:12;11.60;99.90
59067;DHT22;44854;50.838;4.438;2024-03-06T10:01:55;11.70;99.90
59067;DHT22;44854;50.838;4.438;2024-03-06T10:04:32;11.70;99.90
59067;DHT22;44854;50.838;4.438;2024-03-06T10:06:59;11.70;99.90
59067;DHT22;44854;50.838;4.438;2024-03-06T10:09:30;11.70;99.90
59067;DHT22;44854;50.838;4.438;2024-03-06T10:11:58;11.70;99.90
59067;DHT22;44854;50.838;4.438;2024-03-06T10:14:24;11.70;99.90
59067;DHT22;44854;50.838;4.438;2024-03-06T10:16:56;11.80;99.90
59067;DHT22;44854;50.838;4.438;2024-03-06T10:19:23;11.80;99.90
59067;DHT22;44854;50.838;4.438;2024-03-06T10:21:50;11.80;99.90
59067;DHT22;44854;50.838;4.438;2024-03-06T10:24:23;11.90;99.90
59067;DHT22;44854;50.838;4.438;2024-03-06T10:26:54;11.80;99.90
59067;DHT22;44854;50.838;4.438;2024-03-06T10:29:21;11.70;99.90
59067;DHT22;44854;50.838;4.438;2024-03-06T10:31:53;11.40;99.90
59067;DHT22;44854;50.838;4.438;2024-03-06T10:34:21;11.50;99.90
59067;DHT22;44854;50.838;4.438;2024-03-06T10:36:57;11.70;99.90
59067;DHT22;44854;50.838;4.438;2024-03-06T10:39:24;11.90;99.90
59067;DHT22;44854;50.838;4.438;2024-03-06T10:41:57;12.00;99.90
59067;DHT22;44854;50.838;4.438;2024-03-06T10:44:24;12.00;99.90
59067;DHT22;44854;50.838;4.438;2024-03-06T10:47:05;12.00;99.90
59067;DHT22;44854;50.838;4.438;2024-03-06T10:49:31;12.00;99.90
59067;DHT22;44854;50.838;4.438;2024-03-06T10:52:02;12.00;99.90
59067;DHT22;44854;50.838;4.438;2024-03-06T10:54:33;11.80;99.90
59067;DHT22;44854;50.838;4.438;2024-03-06T10:57:01;11.80;99.90
59067;DHT22;44854;50.838;4.438;2024-03-06T10:59:27;11.90;99.90
59067;DHT22;44854;50.838;4.438;2024-03-06T11:01:57;12.00;99.90
59067;DHT22;44854;50.838;4.438;2024-03-06T11:04:27;12.00;99.90
59067;DHT22;44854;50.838;4.438;2024-03-06T11:06:55;12.10;99.90
59067;DHT22;44854;50.838;4.438;2024-03-06T11:09:22;12.10;99.90
59067;DHT22;44854;50.838;4.438;2024-03-06T11:11:50;12.10;99.90
59067;DHT22;44854;50.838;4.438;2024-03-06T11:14:17;11.70;99.90
59067;DHT22;44854;50.838;4.438;2024-03-06T11:17:06;11.60;99.90
59067;DHT22;44854;50.838;4.438;2024-03-06T11:28:18;12.00;99.90
59067;DHT22;44854;50.838;4.438;2024-03-06T11:30:48;12.00;99.90
59067;DHT22;44854;50.838;4.438;2024-03-06T11:33:16;12.00;99.90
59067;DHT22;44854;50.838;4.438;2024-03-06T11:35:42;12.10;99.90
59067;DHT22;44854;50.838;4.438;2024-03-06T11:38:19;12.30;99.90
59067;DHT22;44854;50.838;4.438;2024-03-06T11:40:48;12.40;99.90
59067;DHT22;44854;50.838;4.438;2024-03-06T11:43:24;12.30;99.90
59067;DHT22;44854;50.838;4.438;2024-03-06T11:45:50;12.60;99.90
59067;DHT22;44854;50.838;4.438;2024-03-06T11:48:16;12.50;99.90
59067;DHT22;44854;50.838;4.438;2024-03-06T11:50:44;12.50;99.90
59067;DHT22;44854;50.838;4.438;2024-03-06T11:53:09;12.40;99.90
59067;DHT22;44854;50.838;4.438;2024-03-06T11:55:35;12.60;99.90
59067;DHT22;44854;50.838;4.438;2024-03-06T11:58:01;12.70;99.90
59067;DHT22;44854;50.838;4.438;2024-03-06T12:00:31;12.70;99.90
59067;DHT22;44854;50.838;4.438;2024-03-06T12:02:57;12.70;99.90
59067;DHT22;44854;50.838;4.438;2024-03-06T12:05:23;12.90;99.90
59067;DHT22;44854;50.838;4.438;2024-03-06T12:07:50;12.90;99.90
59067;DHT22;44854;50.838;4.438;2024-03-06T12:10:17;13.00;99.90
59067;DHT22;44854;50.838;4.438;2024-03-06T12:12:44;12.80;99.90
59067;DHT22;44854;50.838;4.438;2024-03-06T12:15:11;12.80;99.90
59067;DHT22;44854;50.838;4.438;2024-03-06T12:17:47;13.10;99.90
59067;DHT22;44854;50.838;4.438;2024-03-06T12:20:16;13.30;99.90
59067;DHT22;44854;50.838;4.438;2024-03-06T12:22:51;13.50;99.90
59067;DHT22;44854;50.838;4.438;2024-03-06T12:25:24;13.60;99.90
59067;DHT22;44854;50.838;4.438;2024-03-06T12:27:51;13.60;99.90
59067;DHT22;44854;50.838;4.438;2024-03-06T12:30:22;13.50;99.90
59067;DHT22;44854;50.838;4.438;2024-03-06T12:32:58;13.50;99.90
59067;DHT22;44854;50.838;4.438;2024-03-06T12:35:25;13.50;99.90
59067;DHT22;44854;50.838;4.438;2024-03-06T12:37:52;13.60;99.90
59067;DHT22;44854;50.838;4.438;2024-03-06T12:40:18;13.60;99.90
59067;DHT22;44854;50.838;4.438;2024-03-06T12:42:44;13.60;99.90
59067;DHT22;44854;50.838;4.438;2024-03-06T12:45:12;13.80;99.90
59067;DHT22;44854;50.838;4.438;2024-03-06T12:47:44;14.20;99.90
59067;DHT22;44854;50.838;4.438;2024-03-06T12:50:16;14.30;99.90
59067;DHT22;44854;50.838;4.438;2024-03-06T12:52:42;14.00;99.90
59067;DHT22;44854;50.838;4.438;2024-03-06T12:55:11;13.60;99.90
59067;DHT22;44854;50.838;4.438;2024-03-06T12:57:36;13.40;99.90
59067;DHT22;44854;50.838;4.438;2024-03-06T13:00:03;13.30;99.90
59067;DHT22;44854;50.838;4.438;2024-03-06T13:02:32;13.10;99.90
59067;DHT22;44854;50.838;4.438;2024-03-06T13:05:00;13.30;99.90
59067;DHT22;44854;50.838;4.438;2024-03-06T13:07:26;13.30;99.90
59067;DHT22;44854;50.838;4.438;2024-03-06T13:09:52;13.40;99.90
59067;DHT22;44854;50.838;4.438;2024-03-06T13:12:18;13.50;99.90
59067;DHT22;44854;50.838;4.438;2024-03-06T13:14:44;13.60;99.90
59067;DHT22;44854;50.838;4.438;2024-03-06T13:17:09;13.60;99.90
59067;DHT22;44854;50.838;4.438;2024-03-06T13:19:35;13.60;99.90
59067;DHT22;44854;50.838;4.438;2024-03-06T13:22:00;13.50;99.90
59067;DHT22;44854;50.838;4.438;2024-03-06T13:24:26;13.50;99.90
59067;DHT22;44854;50.838;4.438;2024-03-06T13:26:52;13.60;99.90
59067;DHT22;44854;50.838;4.438;2024-03-06T13:29:17;13.70;99.90
59067;DHT22;44854;50.838;4.438;2024-03-06T13:31:43;13.70;99.90
59067;DHT22;44854;50.838;4.438;2024-03-06T13:34:09;13.40;99.90
59067;DHT22;44854;50.838;4.438;2024-03-06T13:36:34;13.50;99.90
59067;DHT22;44854;50.838;4.438;2024-03-06T13:39:00;13.60;99.90
59067;DHT22;44854;50.838;4.438;2024-03-06T13:41:25;13.60;99.90
59067;DHT22;44854;50.838;4.438;2024-03-06T13:43:51;13.40;99.90
59067;DHT22;44854;50.838;4.438;2024-03-06T13:46:17;13.40;99.90
59067;DHT22;44854;50.838;4.438;2024-03-06T13:48:43;13.60;99.90
59067;DHT22;44854;50.838;4.438;2024-03-06T13:51:08;13.50;99.90
59067;DHT22;44854;50.838;4.438;2024-03-06T13:53:34;13.40;99.90
59067;DHT22;44854;50.838;4.438;2024-03-06T13:56:00;13.30;99.90
59067;DHT22;44854;50.838;4.438;2024-03-06T13:58:25;13.30;99.90
59067;DHT22;44854;50.838;4.438;2024-03-06T14:00:51;13.20;99.90
59067;DHT22;44854;50.838;4.438;2024-03-06T14:03:17;13.20;99.90
59067;DHT22;44854;50.838;4.438;2024-03-06T14:05:43;13.00;99.90
59067;DHT22;44854;50.838;4.438;2024-03-06T14:08:08;13.00;99.90
59067;DHT22;44854;50.838;4.438;2024-03-06T14:10:38;13.20;99.90
59067;DHT22;44854;50.838;4.438;2024-03-06T14:13:04;13.30;99.90
59067;DHT22;44854;50.838;4.438;2024-03-06T14:15:32;13.60;99.90
59067;DHT22;44854;50.838;4.438;2024-03-06T14:17:58;13.60;99.90
59067;DHT22;44854;50.838;4.438;2024-03-06T14:20:23;13.60;99.90
59067;DHT22;44854;50.838;4.438;2024-03-06T14:22:49;13.60;99.90
59067;DHT22;44854;50.838;4.438;2024-03-06T14:25:15;13.70;99.90
59067;DHT22;44854;50.838;4.438;2024-03-06T14:27:41;13.80;99.90
59067;DHT22;44854;50.838;4.438;2024-03-06T14:30:07;13.80;99.90
59067;DHT22;44854;50.838;4.438;2024-03-06T14:32:34;13.70;99.90
59067;DHT22;44854;50.838;4.438;2024-03-06T14:34:59;13.70;99.90
59067;DHT22;44854;50.838;4.438;2024-03-06T14:37:25;13.70;99.90
59067;DHT22;44854;50.838;4.438;2024-03-06T14:39:51;13.70;99.90
59067;DHT22;44854;50.838;4.438;2024-03-06T14:42:17;13.60;99.90
59067;DHT22;44854;50.838;4.438;2024-03-06T14:44:43;13.70;99.90
59067;DHT22;44854;50.838;4.438;2024-03-06T14:47:09;13.80;99.90
59067;DHT22;44854;50.838;4.438;2024-03-06T14:49:41;13.80;99.90
59067;DHT22;44854;50.838;4.438;2024-03-06T14:52:11;13.90;99.90
59067;DHT22;44854;50.838;4.438;2024-03-06T14:54:38;13.60;99.90
59067;DHT22;44854;50.838;4.438;2024-03-06T14:57:03;13.60;99.90
59067;DHT22;44854;50.838;4.438;2024-03-06T14:59:31;13.40;99.90
59067;DHT22;44854;50.838;4.438;2024-03-06T15:01:56;13.30;99.90
59067;DHT22;44854;50.838;4.438;2024-03-06T15:04:22;13.30;99.90
59067;DHT22;44854;50.838;4.438;2024-03-06T15:06:48;13.30;99.90
59067;DHT22;44854;50.838;4.438;2024-03-06T15:09:13;13.40;99.90
59067;DHT22;44854;50.838;4.438;2024-03-06T15:11:41;13.40;99.90
59067;DHT22;44854;50.838;4.438;2024-03-06T15:14:07;13.40;99.90
59067;DHT22;44854;50.838;4.438;2024-03-06T15:16:36;13.40;99.90
59067;DHT22;44854;50.838;4.438;2024-03-06T15:19:02;13.40;99.90
59067;DHT22;44854;50.838;4.438;2024-03-06T15:21:29;13.40;99.90
59067;DHT22;44854;50.838;4.438;2024-03-06T15:23:56;13.50;99.90
59067;DHT22;44854;50.838;4.438;2024-03-06T15:26:22;13.60;99.90
59067;DHT22;44854;50.838;4.438;2024-03-06T15:28:47;13.60;99.90
59067;DHT22;44854;50.838;4.438;2024-03-06T15:31:14;13.60;99.90
59067;DHT22;44854;50.838;4.438;2024-03-06T15:33:39;13.50;99.90
59067;DHT22;44854;50.838;4.438;2024-03-06T15:36:05;13.60;99.90
59067;DHT22;44854;50.838;4.438;2024-03-06T15:38:31;13.70;99.90
59067;DHT22;44854;50.838;4.438;2024-03-06T15:40:57;13.70;99.90
59067;DHT22;44854;50.838;4.438;2024-03-06T15:43:23;13.70;99.90
59067;DHT22;44854;50.838;4.438;2024-03-06T15:45:49;13.60;99.90
59067;DHT22;44854;50.838;4.438;2024-03-06T15:48:14;13.30;99.90
59067;DHT22;44854;50.838;4.438;2024-03-06T15:50:41;13.30;99.90
59067;DHT22;44854;50.838;4.438;2024-03-06T15:53:07;13.30;99.90
59067;DHT22;44854;50.838;4.438;2024-03-06T15:55:34;13.30;99.90
59067;DHT22;44854;50.838;4.438;2024-03-06T15:58:04;13.40;99.90
59067;DHT22;44854;50.838;4.438;2024-03-06T16:00:30;13.30;99.90
59067;DHT22;44854;50.838;4.438;2024-03-06T16:02:56;13.30;99.90
59067;DHT22;44854;50.838;4.438;2024-03-06T16:05:24;13.30;99.90
59067;DHT22;44854;50.838;4.438;2024-03-06T16:07:54;13.20;99.90
59067;DHT22;44854;50.838;4.438;2024-03-06T16:10:22;13.10;99.90
59067;DHT22;44854;50.838;4.438;2024-03-06T16:12:48;13.10;99.90
59067;DHT22;44854;50.838;4.438;2024-03-06T16:15:15;13.10;99.90
59067;DHT22;44854;50.838;4.438;2024-03-06T16:17:41;13.10;99.90
59067;DHT22;44854;50.838;4.438;2024-03-06T16:20:08;13.00;99.90
59067;DHT22;44854;50.838;4.438;2024-03-06T16:22:36;13.00;99.90
59067;DHT22;44854;50.838;4.438;2024-03-06T16:25:01;13.00;99.90
59067;DHT22;44854;50.838;4.438;2024-03-06T16:27:27;13.10;99.90
59067;DHT22;44854;50.838;4.438;2024-03-06T16:29:54;13.10;99.90
59067;DHT22;44854;50.838;4.438;2024-03-06T16:32:20;13.00;99.90
59067;DHT22;44854;50.838;4.438;2024-03-06T16:34:46;12.90;99.90
59067;DHT22;44854;50.838;4.438;2024-03-06T16:37:12;13.00;99.90
59067;DHT22;44854;50.838;4.438;2024-03-06T16:39:37;13.00;99.90
59067;DHT22;44854;50.838;4.438;2024-03-06T16:42:03;13.00;99.90
59067;DHT22;44854;50.838;4.438;2024-03-06T16:44:29;12.90;99.90
59067;DHT22;44854;50.838;4.438;2024-03-06T16:46:55;12.90;99.90
59067;DHT22;44854;50.838;4.438;2024-03-06T16:49:21;12.80;99.90
59067;DHT22;44854;50.838;4.438;2024-03-06T16:51:47;12.80;99.90
59067;DHT22;44854;50.838;4.438;2024-03-06T16:54:13;12.70;99.90
59067;DHT22;44854;50.838;4.438;2024-03-06T16:56:39;12.70;99.90
59067;DHT22;44854;50.838;4.438;2024-03-06T16:59:04;12.70;99.90
59067;DHT22;44854;50.838;4.438;2024-03-06T17:01:32;12.70;99.90
59067;DHT22;44854;50.838;4.438;2024-03-06T17:03:58;12.60;99.90
59067;DHT22;44854;50.838;4.438;2024-03-06T17:06:24;12.50;99.90
59067;DHT22;44854;50.838;4.438;2024-03-06T17:08:50;12.50;99.90
59067;DHT22;44854;50.838;4.438;2024-03-06T17:11:16;12.40;99.90
59067;DHT22;44854;50.838;4.438;2024-03-06T17:13:42;12.30;99.90
59067;DHT22;44854;50.838;4.438;2024-03-06T17:16:09;12.50;99.90
59067;DHT22;44854;50.838;4.438;2024-03-06T17:18:35;12.30;99.90
59067;DHT22;44854;50.838;4.438;2024-03-06T17:21:02;12.20;99.90
59067;DHT22;44854;50.838;4.438;2024-03-06T17:23:30;12.20;99.90
59067;DHT22;44854;50.838;4.438;2024-03-06T17:25:55;12.10;99.90
59067;DHT22;44854;50.838;4.438;2024-03-06T17:28:21;12.20;99.90
59067;DHT22;44854;50.838;4.438;2024-03-06T17:30:47;12.10;99.90
59067;DHT22;44854;50.838;4.438;2024-03-06T17:33:13;12.00;99.90
59067;DHT22;44854;50.838;4.438;2024-03-06T17:35:45;11.90;99.90
59067;DHT22;44854;50.838;4.438;2024-03-06T17:38:13;11.90;99.90
59067;DHT22;44854;50.838;4.438;2024-03-06T17:40:38;11.90;99.90
59067;DHT22;44854;50.838;4.438;2024-03-06T17:43:05;11.80;99.90
59067;DHT22;44854;50.838;4.438;2024-03-06T17:45:31;11.70;99.90
59067;DHT22;44854;50.838;4.438;2024-03-06T17:47:57;11.50;99.90
59067;DHT22;44854;50.838;4.438;2024-03-06T17:50:22;11.50;99.90
59067;DHT22;44854;50.838;4.438;2024-03-06T17:52:48;11.50;99.90
59067;DHT22;44854;50.838;4.438;2024-03-06T17:55:14;11.40;99.90
59067;DHT22;44854;50.838;4.438;2024-03-06T17:57:40;11.30;99.90
59067;DHT22;44854;50.838;4.438;2024-03-06T18:00:15;11.20;99.90
59067;DHT22;44854;50.838;4.438;2024-03-06T18:02:42;11.10;99.90
59067;DHT22;44854;50.838;4.438;2024-03-06T18:05:09;11.10;99.90
59067;DHT22;44854;50.838;4.438;2024-03-06T18:07:35;10.90;99.90
59067;DHT22;44854;50.838;4.438;2024-03-06T18:10:01;10.90;99.90
59067;DHT22;44854;50.838;4.438;2024-03-06T18:12:26;10.80;99.90
59067;DHT22;44854;50.838;4.438;2024-03-06T18:14:55;10.80;99.90
59067;DHT22;44854;50.838;4.438;2024-03-06T18:17:22;10.70;99.90
59067;DHT22;44854;50.838;4.438;2024-03-06T18:19:50;10.60;99.90
59067;DHT22;44854;50.838;4.438;2024-03-06T18:22:15;10.60;99.90
59067;DHT22;44854;50.838;4.438;2024-03-06T18:24:41;10.50;99.90
59067;DHT22;44854;50.838;4.438;2024-03-06T18:27:07;10.40;99.90
59067;DHT22;44854;50.838;4.438;2024-03-06T18:29:32;10.30;99.90
59067;DHT22;44854;50.838;4.438;2024-03-06T18:31:58;10.30;99.90
59067;DHT22;44854;50.838;4.438;2024-03-06T18:34:24;10.20;99.90
59067;DHT22;44854;50.838;4.438;2024-03-06T18:36:50;10.10;99.90
59067;DHT22;44854;50.838;4.438;2024-03-06T18:39:16;9.90;99.90
59067;DHT22;44854;50.838;4.438;2024-03-06T18:41:43;9.80;99.90
59067;DHT22;44854;50.838;4.438;2024-03-06T18:44:10;9.80;99.90
59067;DHT22;44854;50.838;4.438;2024-03-06T18:46:38;9.80;99.90
59067;DHT22;44854;50.838;4.438;2024-03-06T18:49:04;9.70;99.90
59067;DHT22;44854;50.838;4.438;2024-03-06T18:51:31;9.60;99.90
59067;DHT22;44854;50.838;4.438;2024-03-06T18:53:57;9.70;99.90
59067;DHT22;44854;50.838;4.438;2024-03-06T18:56:22;9.60;99.90
59067;DHT22;44854;50.838;4.438;2024-03-06T18:58:48;9.50;99.90
59067;DHT22;44854;50.838;4.438;2024-03-06T19:01:14;9.60;99.90
59067;DHT22;44854;50.838;4.438;2024-03-06T19:03:40;9.60;99.90
59067;DHT22;44854;50.838;4.438;2024-03-06T19:06:10;9.60;99.90
59067;DHT22;44854;50.838;4.438;2024-03-06T19:08:37;9.50;99.90
59067;DHT22;44854;50.838;4.438;2024-03-06T19:11:04;9.50;99.90
59067;DHT22;44854;50.838;4.438;2024-03-06T19:13:30;9.60;99.90
59067;DHT22;44854;50.838;4.438;2024-03-06T19:15:55;9.60;99.90
59067;DHT22;44854;50.838;4.438;2024-03-06T19:18:21;9.60;99.90
59067;DHT22;44854;50.838;4.438;2024-03-06T19:20:47;9.70;99.90
59067;DHT22;44854;50.838;4.438;2024-03-06T19:23:14;9.70;99.90
59067;DHT22;44854;50.838;4.438;2024-03-06T19:25:40;9.60;99.90
59067;DHT22;44854;50.838;4.438;2024-03-06T19:28:06;9.60;99.90
59067;DHT22;44854;50.838;4.438;2024-03-06T19:30:31;9.70;99.90
59067;DHT22;44854;50.838;4.438;2024-03-06T19:32:58;9.70;99.90
59067;DHT22;44854;50.838;4.438;2024-03-06T19:35:24;9.70;99.90
59067;DHT22;44854;50.838;4.438;2024-03-06T19:37:51;9.60;99.90
59067;DHT22;44854;50.838;4.438;2024-03-06T19:40:18;9.70;99.90
59067;DHT22;44854;50.838;4.438;2024-03-06T19:42:45;9.60;99.90
59067;DHT22;44854;50.838;4.438;2024-03-06T19:45:11;9.70;99.90
59067;DHT22;44854;50.838;4.438;2024-03-06T19:47:37;9.60;99.90
59067;DHT22;44854;50.838;4.438;2024-03-06T19:50:03;9.60;99.90
59067;DHT22;44854;50.838;4.438;2024-03-06T19:52:30;9.60;99.90
59067;DHT22;44854;50.838;4.438;2024-03-06T19:54:57;9.50;99.90
59067;DHT22;44854;50.838;4.438;2024-03-06T19:57:23;9.60;99.90
59067;DHT22;44854;50.838;4.438;2024-03-06T19:59:49;9.70;99.90
59067;DHT22;44854;50.838;4.438;2024-03-06T20:02:14;9.70;99.90
59067;DHT22;44854;50.838;4.438;2024-03-06T20:04:41;9.70;99.90
59067;DHT22;44854;50.838;4.438;2024-03-06T20:07:07;9.70;99.90
59067;DHT22;44854;50.838;4.438;2024-03-06T20:09:33;9.70;99.90
59067;DHT22;44854;50.838;4.438;2024-03-06T20:11:58;9.70;99.90
59067;DHT22;44854;50.838;4.438;2024-03-06T20:14:24;9.70;99.90
59067;DHT22;44854;50.838;4.438;2024-03-06T20:16:50;9.70;99.90
59067;DHT22;44854;50.838;4.438;2024-03-06T20:19:16;9.80;99.90
59067;DHT22;44854;50.838;4.438;2024-03-06T20:21:42;9.70;99.90
59067;DHT22;44854;50.838;4.438;2024-03-06T20:24:15;9.60;99.90
59067;DHT22;44854;50.838;4.438;2024-03-06T20:26:41;9.70;99.90
59067;DHT22;44854;50.838;4.438;2024-03-06T20:29:07;9.60;99.90
59067;DHT22;44854;50.838;4.438;2024-03-06T20:31:33;9.70;99.90
59067;DHT22;44854;50.838;4.438;2024-03-06T20:33:59;9.70;99.90
59067;DHT22;44854;50.838;4.438;2024-03-06T20:36:25;9.70;99.90
59067;DHT22;44854;50.838;4.438;2024-03-06T20:38:51;9.60;99.90
59067;DHT22;44854;50.838;4.438;2024-03-06T20:41:17;9.60;99.90
59067;DHT22;44854;50.838;4.438;2024-03-06T20:43:42;9.70;99.90
59067;DHT22;44854;50.838;4.438;2024-03-06T20:46:09;9.60;99.90
59067;DHT22;44854;50.838;4.438;2024-03-06T20:48:35;9.70;99.90
59067;DHT22;44854;50.838;4.438;2024-03-06T20:51:01;9.60;99.90
59067;DHT22;44854;50.838;4.438;2024-03-06T20:53:28;9.50;99.90